Time;durP1;ratioP1;P1;durP2;ratioP2;P2;SDS_P1;SDS_P2;PMS_P1;PMS_P2;Temp;Humidity;BMP_temperature;BMP_pressure;BME280_temperature;BME280_humidity;BME280_pressure;Samples;Min_cycle;Max_cycle;Signal;HPM_P1;HPM_P2
2023/01/06 00:01:27;;;;;;;;;;;;;;;4.43;100.00;98999.22;4295086;33;20290;-75
2023/01/06 00:03:57;;;;;;;;;;;;;;;4.28;100.00;98999.47;4292249;33;19945;-75
2023/01/06 00:06:26;;;;;;;;;;;;;;;4.20;100.00;98997.84;4293380;33;19973;-74
2023/01/06 00:08:56;;;;;;;;;;;;;;;4.14;100.00;99012.00;4290789;33;19941;-74
2023/01/06 00:11:23;;;;;;;;;;;;;;;4.30;100.00;99006.22;4290651;33;19957;-75
2023/01/06 00:13:49;;;;;;;;;;;;;;;4.29;100.00;99009.94;4292239;33;20079;-74
2023/01/06 00:16:17;;;;;;;;;;;;;;;4.37;100.00;99007.03;4294702;33;20022;-75
2023/01/06 00:18:43;;;;;;;;;;;;;;;4.28;100.00;99008.28;4254500;33;19938;-74
2023/01/06 00:21:11;;;;;;;;;;;;;;;4.23;100.00;99009.91;4252676;33;19980;-73
2023/01/06 00:23:37;;;;;;;;;;;;;;;4.40;100.00;99005.78;4250577;33;20033;-73
2023/01/06 00:26:04;;;;;;;;;;;;;;;4.33;100.00;99011.13;4252346;33;19945;-74
2023/01/06 00:28:31;;;;;;;;;;;;;;;4.32;100.00;99014.84;4253257;33;19954;-74
2023/01/06 00:30:58;;;;;;;;;;;;;;;4.25;100.00;99024.69;4225113;34;19946;-74
2023/01/06 00:33:24;;;;;;;;;;;;;;;4.03;100.00;99025.97;4225398;34;19964;-74
2023/01/06 00:35:51;;;;;;;;;;;;;;;4.08;100.00;99034.16;4234746;33;20023;-74
2023/01/06 00:38:18;;;;;;;;;;;;;;;3.42;100.00;99046.44;4238213;33;19977;-74
2023/01/06 00:40:46;;;;;;;;;;;;;;;3.64;100.00;99039.91;4238900;33;19941;-74
2023/01/06 00:43:12;;;;;;;;;;;;;;;3.45;100.00;99051.38;4239157;33;20006;-75
2023/01/06 00:45:38;;;;;;;;;;;;;;;3.53;100.00;99064.47;4238236;33;20000;-74
2023/01/06 00:48:04;;;;;;;;;;;;;;;3.35;100.00;99058.91;4236939;33;19954;-75
2023/01/06 00:50:31;;;;;;;;;;;;;;;3.51;100.00;99058.53;4255992;33;19970;-74
2023/01/06 00:52:56;;;;;;;;;;;;;;;3.40;100.00;99070.59;4265148;33;19956;-74
2023/01/06 00:55:23;;;;;;;;;;;;;;;3.15;100.00;99073.00;4265577;33;19956;-73
2023/01/06 00:57:52;;;;;;;;;;;;;;;3.21;100.00;99082.84;4266490;33;19945;-74
2023/01/06 03:00:41;;;;;;;;;;;;;;;3.86;100.00;99233.34;4936922;27;19991;-75
2023/01/06 03:03:13;;;;;;;;;;;;;;;3.80;100.00;99234.97;4292674;33;19967;-74
2023/01/06 03:05:40;;;;;;;;;;;;;;;3.78;100.00;99243.16;4282650;33;19959;-74
2023/01/06 03:08:10;;;;;;;;;;;;;;;3.77;100.00;99240.69;4281631;33;20098;-73
2023/01/06 03:10:39;;;;;;;;;;;;;;;3.37;100.00;99240.53;4281745;33;20293;-74
2023/01/06 03:13:11;;;;;;;;;;;;;;;3.49;100.00;99244.25;4282601;33;19971;-74
2023/01/06 03:15:37;;;;;;;;;;;;;;;3.51;100.00;99230.75;4282578;33;20021;-74
2023/01/06 03:18:04;;;;;;;;;;;;;;;3.40;100.00;99234.81;4282671;33;19953;-74
2023/01/06 03:20:30;;;;;;;;;;;;;;;3.49;100.00;99244.25;4281887;33;19945;-74
2023/01/06 03:22:57;;;;;;;;;;;;;;;3.14;100.00;99214.22;4281233;33;19953;-74
2023/01/06 03:25:23;;;;;;;;;;;;;;;3.49;100.00;99249.59;4282888;33;19957;-74
2023/01/06 03:27:49;;;;;;;;;;;;;;;3.42;100.00;99254.87;4292726;33;19941;-74
2023/01/06 03:30:16;;;;;;;;;;;;;;;3.41;100.00;99252.41;4296993;33;19954;-74
2023/01/06 03:32:43;;;;;;;;;;;;;;;3.54;100.00;99252.50;4296882;33;20343;-74
2023/01/06 03:35:32;;;;;;;;;;;;;;;3.51;100.00;99258.22;4294763;33;19952;-73
2023/01/06 03:38:04;;;;;;;;;;;;;;;3.27;100.00;99263.00;4294306;33;19962;-74
2023/01/06 03:40:34;;;;;;;;;;;;;;;3.44;100.00;99262.69;4296966;33;19985;-74
2023/01/06 03:43:11;;;;;;;;;;;;;;;3.06;100.00;99231.16;4295914;33;20350;-74
2023/01/06 03:45:49;;;;;;;;;;;;;;;3.27;100.00;99268.34;4296766;33;19949;-74
2023/01/06 03:48:22;;;;;;;;;;;;;;;3.24;100.00;99273.25;4296033;33;20059;-74
2023/01/06 03:51:06;;;;;;;;;;;;;;;3.25;100.00;99264.22;4296148;33;20243;-74
2023/01/06 03:53:35;;;;;;;;;;;;;;;3.21;100.00;99274.44;4266352;33;20015;-74
2023/01/06 03:56:08;;;;;;;;;;;;;;;3.29;100.00;99270.81;4265288;33;19975;-74
2023/01/06 03:58:35;;;;;;;;;;;;;;;3.17;100.00;99278.50;4267110;33;19957;-75
2023/01/06 04:01:02;;;;;;;;;;;;;;;3.24;100.00;99268.72;4267776;33;19950;-74
2023/01/06 04:03:29;;;;;;;;;;;;;;;3.25;100.00;99270.34;4264619;33;20062;-74
2023/01/06 04:05:55;;;;;;;;;;;;;;;3.16;100.00;99279.53;4267778;33;19973;-74
2023/01/06 04:08:22;;;;;;;;;;;;;;;3.12;100.00;99283.59;4266133;33;19967;-74
2023/01/06 04:10:48;;;;;;;;;;;;;;;3.24;100.00;99287.34;4267031;33;20941;-74
2023/01/06 04:13:14;;;;;;;;;;;;;;;3.26;100.00;99292.47;4266607;33;19946;-75
2023/01/06 04:15:41;;;;;;;;;;;;;;;3.36;100.00;99292.13;4267760;33;19996;-74
2023/01/06 04:18:08;;;;;;;;;;;;;;;3.30;100.00;99287.59;4267971;33;19950;-75
2023/01/06 04:20:34;;;;;;;;;;;;;;;3.28;100.00;99291.25;4267249;33;19946;-75
2023/01/06 04:23:02;;;;;;;;;;;;;;;2.98;100.00;99284.50;4267767;33;19946;-75
2023/01/06 04:25:30;;;;;;;;;;;;;;;2.96;100.00;99292.69;4267698;33;20014;-75
2023/01/06 04:27:57;;;;;;;;;;;;;;;2.92;100.00;99296.75;4267228;33;19957;-75
2023/01/06 04:30:23;;;;;;;;;;;;;;;2.80;100.00;99293.78;4269159;33;20048;-74
2023/01/06 04:32:50;;;;;;;;;;;;;;;2.79;100.00;99292.13;4283785;33;20421;-75
2023/01/06 04:35:23;;;;;;;;;;;;;;;2.82;100.00;99301.59;4296899;33;20000;-74
2023/01/06 04:37:49;;;;;;;;;;;;;;;2.84;100.00;99300.37;4296260;33;19971;-75
2023/01/06 04:40:21;;;;;;;;;;;;;;;2.88;100.00;99300.81;4296197;33;19941;-74
2023/01/06 04:43:03;;;;;;;;;;;;;;;3.07;100.00;99294.81;4267357;33;19946;-75
2023/01/06 04:45:29;;;;;;;;;;;;;;;3.03;100.00;99293.56;4267941;33;19995;-74
2023/01/06 04:47:55;;;;;;;;;;;;;;;3.04;100.00;99289.06;4247293;33;19946;-74
2023/01/06 04:50:21;;;;;;;;;;;;;;;2.88;100.00;99279.53;4241160;33;20299;-74
2023/01/06 04:52:48;;;;;;;;;;;;;;;3.04;100.00;99283.75;4244606;33;19961;-73
2023/01/06 04:55:14;;;;;;;;;;;;;;;2.81;100.00;99289.28;4239666;33;20334;-75
2023/01/06 04:57:41;;;;;;;;;;;;;;;2.83;100.00;99293.41;4239653;33;19942;-74
2023/01/06 05:00:07;;;;;;;;;;;;;;;2.97;100.00;99277.53;4246620;33;20032;-74
2023/01/06 05:02:33;;;;;;;;;;;;;;;2.89;100.00;99282.00;4236221;33;19965;-75
2023/01/06 05:04:59;;;;;;;;;;;;;;;2.92;100.00;99275.50;4252066;33;20341;-75
2023/01/06 05:07:26;;;;;;;;;;;;;;;2.87;100.00;99276.06;4251497;33;19938;-75
2023/01/06 05:09:58;;;;;;;;;;;;;;;2.76;100.00;99276.59;4245242;33;19947;-75
2023/01/06 05:12:25;;;;;;;;;;;;;;;2.84;100.00;99276.44;4237262;33;20387;-74
2023/01/06 05:14:51;;;;;;;;;;;;;;;3.01;100.00;99278.81;4265916;33;19950;-75
2023/01/06 05:17:17;;;;;;;;;;;;;;;3.09;100.00;99291.97;4267393;33;19958;-74
2023/01/06 05:19:44;;;;;;;;;;;;;;;2.99;100.00;99297.63;4290728;33;19945;-74
2023/01/06 05:22:10;;;;;;;;;;;;;;;2.91;100.00;99290.59;4265334;33;20443;-74
2023/01/06 05:24:36;;;;;;;;;;;;;;;2.77;100.00;99298.69;4265536;33;20069;-74
2023/01/06 05:27:03;;;;;;;;;;;;;;;2.87;100.00;99304.47;4267134;33;19991;-74
2023/01/06 05:29:29;;;;;;;;;;;;;;;2.85;100.00;99302.00;4264244;33;19954;-74
2023/01/06 05:31:55;;;;;;;;;;;;;;;2.79;100.00;99300.13;4253349;33;19988;-74
2023/01/06 05:34:22;;;;;;;;;;;;;;;2.67;100.00;99304.34;4253594;33;19941;-74
2023/01/06 05:36:48;;;;;;;;;;;;;;;2.68;100.00;99311.28;4250851;33;19953;-73
2023/01/06 05:39:14;;;;;;;;;;;;;;;2.49;100.00;99308.28;4253061;33;20738;-74
2023/01/06 05:41:40;;;;;;;;;;;;;;;2.59;100.00;99312.44;4252988;33;20392;-73
2023/01/06 05:44:06;;;;;;;;;;;;;;;2.72;100.00;99312.56;4253178;33;19961;-74
2023/01/06 05:46:32;;;;;;;;;;;;;;;2.76;100.00;99316.50;4253173;33;19955;-73
2023/01/06 05:49:00;;;;;;;;;;;;;;;2.70;100.00;99310.09;4251502;33;19968;-73
2023/01/06 05:51:26;;;;;;;;;;;;;;;2.55;100.00;99317.28;4252640;33;19971;-74
2023/01/06 05:53:52;;;;;;;;;;;;;;;2.35;100.00;99327.75;4253083;33;19938;-74
2023/01/06 05:56:20;;;;;;;;;;;;;;;2.62;100.00;99330.69;4253150;33;20019;-74
2023/01/06 05:58:47;;;;;;;;;;;;;;;2.65;100.00;99322.28;4253257;33;20278;-74
2023/01/06 06:01:33;;;;;;;;;;;;;;;2.59;100.00;99325.75;4250935;33;20684;-74
2023/01/06 06:03:59;;;;;;;;;;;;;;;2.69;100.00;99328.88;4252945;33;19945;-74
2023/01/06 06:06:26;;;;;;;;;;;;;;;2.59;100.00;99321.25;4237427;33;19952;-74
2023/01/06 06:08:52;;;;;;;;;;;;;;;2.46;100.00;99313.97;4238266;33;19996;-75
2023/01/06 06:11:19;;;;;;;;;;;;;;;2.56;100.00;99320.81;4249196;33;19969;-75
2023/01/06 06:13:49;;;;;;;;;;;;;;;2.62;100.00;99314.72;4253043;33;19938;-75
2023/01/06 06:16:17;;;;;;;;;;;;;;;2.81;100.00;99316.72;4251689;33;20373;-75
2023/01/06 06:18:46;;;;;;;;;;;;;;;2.82;100.00;99307.72;4244960;33;19942;-75
2023/01/06 06:21:14;;;;;;;;;;;;;;;2.82;100.00;99318.34;4236386;33;19972;-74
2023/01/06 06:23:40;;;;;;;;;;;;;;;2.93;100.00;99313.53;4238409;33;20051;-74
2023/01/06 06:26:07;;;;;;;;;;;;;;;3.00;100.00;99322.37;4238347;33;19944;-74
2023/01/06 06:28:34;;;;;;;;;;;;;;;2.94;100.00;99325.84;4224713;33;19943;-75
2023/01/06 06:31:08;;;;;;;;;;;;;;;2.93;100.00;99329.50;4236226;33;19956;-74
2023/01/06 06:33:35;;;;;;;;;;;;;;;2.92;100.00;99334.00;4196720;34;19969;-73
2023/01/06 06:36:02;;;;;;;;;;;;;;;2.98;100.00;99343.03;4195954;34;20342;-73
2023/01/06 06:38:28;;;;;;;;;;;;;;;2.96;100.00;99334.44;4196380;34;19965;-73
2023/01/06 06:40:55;;;;;;;;;;;;;;;3.02;100.00;99339.00;4195691;34;19948;-73
2023/01/06 06:43:21;;;;;;;;;;;;;;;3.05;100.00;99343.94;4195408;34;20299;-72
2023/01/06 06:45:47;;;;;;;;;;;;;;;3.01;100.00;99337.34;4201709;34;20084;-73
2023/01/06 06:48:14;;;;;;;;;;;;;;;3.00;100.00;99330.34;4196333;34;19947;-73
2023/01/06 06:50:40;;;;;;;;;;;;;;;2.93;100.00;99345.47;4197911;34;19981;-73
2023/01/06 06:53:06;;;;;;;;;;;;;;;2.91;100.00;99337.66;4201783;34;20014;-73
2023/01/06 06:55:33;;;;;;;;;;;;;;;2.97;100.00;99350.19;4202312;34;20332;-73
2023/01/06 06:57:59;;;;;;;;;;;;;;;2.94;100.00;99352.44;4202939;34;19956;-73
2023/01/06 07:00:25;;;;;;;;;;;;;;;3.01;100.00;99358.63;4218718;34;20386;-73
2023/01/06 07:02:52;;;;;;;;;;;;;;;3.14;100.00;99365.88;4207512;34;19943;-73
2023/01/06 07:05:18;;;;;;;;;;;;;;;3.22;100.00;99361.25;4216820;33;20320;-73
2023/01/06 07:07:44;;;;;;;;;;;;;;;3.04;100.00;99363.56;4221510;33;20278;-73
2023/01/06 07:10:14;;;;;;;;;;;;;;;3.19;100.00;99360.78;4238351;33;19997;-73
2023/01/06 07:12:40;;;;;;;;;;;;;;;3.20;100.00;99357.94;4237969;33;19946;-74
2023/01/06 07:15:07;;;;;;;;;;;;;;;3.21;100.00;99356.94;4238464;33;19942;-75
2023/01/06 07:17:34;;;;;;;;;;;;;;;3.21;100.00;99370.25;4237821;33;19950;-75
2023/01/06 07:20:00;;;;;;;;;;;;;;;3.33;100.00;99383.00;4257509;33;19948;-74
2023/01/06 07:22:26;;;;;;;;;;;;;;;3.31;100.00;99399.19;4251464;33;20016;-74
2023/01/06 07:24:52;;;;;;;;;;;;;;;3.43;100.00;99388.81;4252443;33;19956;-74
2023/01/06 07:27:18;;;;;;;;;;;;;;;3.42;100.00;99392.50;4251747;33;20341;-74
2023/01/06 07:29:45;;;;;;;;;;;;;;;3.49;100.00;99393.34;4252085;33;19980;-74
2023/01/06 07:32:11;;;;;;;;;;;;;;;3.50;100.00;99399.53;4234846;33;19974;-73
2023/01/06 07:34:37;;;;;;;;;;;;;;;3.53;100.00;99394.62;4240883;33;19966;-75
2023/01/06 07:37:03;;;;;;;;;;;;;;;3.50;100.00;99397.66;4240166;33;19950;-74
2023/01/06 07:39:29;;;;;;;;;;;;;;;3.44;100.00;99395.78;4236549;33;19954;-72
2023/01/06 07:41:55;;;;;;;;;;;;;;;3.44;100.00;99390.47;4233552;33;20318;-73
2023/01/06 07:44:28;;;;;;;;;;;;;;;3.51;100.00;99380.69;4236525;33;19954;-73
2023/01/06 07:46:55;;;;;;;;;;;;;;;3.49;100.00;99392.53;4212314;34;19965;-75
2023/01/06 07:49:21;;;;;;;;;;;;;;;3.04;100.00;99403.47;4183624;34;20009;-76
2023/01/06 07:51:47;;;;;;;;;;;;;;;2.98;100.00;99401.56;4182882;34;19952;-75
2023/01/06 07:54:14;;;;;;;;;;;;;;;2.94;100.00;99390.50;4215688;34;20312;-75
2023/01/06 07:56:40;;;;;;;;;;;;;;;2.99;100.00;99397.91;4216336;33;19939;-75
2023/01/06 07:59:06;;;;;;;;;;;;;;;3.33;100.00;99388.34;4226845;33;19943;-75
2023/01/06 08:01:32;;;;;;;;;;;;;;;3.48;100.00;99386.41;4224651;33;20346;-75
2023/01/06 08:03:59;;;;;;;;;;;;;;;3.47;100.00;99387.41;4209497;34;19939;-75
2023/01/06 08:06:25;;;;;;;;;;;;;;;3.64;100.00;99374.63;4182130;34;19974;-75
2023/01/06 08:08:51;;;;;;;;;;;;;;;3.70;100.00;99383.66;4183644;34;19984;-75
2023/01/06 08:11:17;;;;;;;;;;;;;;;3.61;100.00;99381.16;4183009;34;19987;-74
2023/01/06 08:13:43;;;;;;;;;;;;;;;3.52;100.00;99387.62;4185237;34;19952;-73
2023/01/06 08:16:10;;;;;;;;;;;;;;;3.50;100.00;99388.88;4185140;34;19947;-74
2023/01/06 08:18:37;;;;;;;;;;;;;;;3.57;100.00;99385.22;4184991;34;20288;-74
2023/01/06 08:21:04;;;;;;;;;;;;;;;3.57;100.00;99371.91;4192848;34;19949;-74
2023/01/06 08:23:30;;;;;;;;;;;;;;;3.63;100.00;99372.97;4184849;34;19969;-74
2023/01/06 08:26:03;;;;;;;;;;;;;;;3.48;100.00;99367.78;4172240;34;19972;-74
2023/01/06 08:28:30;;;;;;;;;;;;;;;3.64;100.00;99378.09;4184910;34;19960;-75
2023/01/06 08:30:56;;;;;;;;;;;;;;;3.68;100.00;99375.84;4183352;34;19958;-74
2023/01/06 08:33:24;;;;;;;;;;;;;;;3.88;100.00;99378.66;4182097;34;20771;-74
2023/01/06 08:35:57;;;;;;;;;;;;;;;3.82;100.00;99380.25;4195870;34;20005;-73
2023/01/06 08:38:24;;;;;;;;;;;;;;;3.70;100.00;99381.84;4225867;33;19997;-74
2023/01/06 08:40:53;;;;;;;;;;;;;;;3.87;100.00;99390.31;4225238;33;19970;-74
2023/01/06 08:43:19;;;;;;;;;;;;;;;3.90;100.00;99379.25;4223409;33;19960;-74
2023/01/06 08:45:45;;;;;;;;;;;;;;;3.74;100.00;99379.59;4225239;33;19954;-74
2023/01/06 08:48:18;;;;;;;;;;;;;;;3.70;100.00;99373.84;4225702;33;19951;-74
2023/01/06 08:50:45;;;;;;;;;;;;;;;3.69;100.00;99384.69;4215283;34;19935;-73
2023/01/06 08:53:11;;;;;;;;;;;;;;;3.67;100.00;99397.34;4209371;34;19996;-73
2023/01/06 08:55:39;;;;;;;;;;;;;;;3.49;100.00;99398.69;4224168;34;19954;-73
2023/01/06 08:58:05;;;;;;;;;;;;;;;3.73;100.00;99407.22;4236636;33;19960;-73
2023/01/06 09:00:31;;;;;;;;;;;;;;;3.79;100.00;99403.78;4221718;34;20890;-74
2023/01/06 09:02:58;;;;;;;;;;;;;;;3.52;100.00;99395.62;4225149;33;19976;-74
2023/01/06 09:05:24;;;;;;;;;;;;;;;3.52;100.00;99384.97;4222592;34;19946;-73
2023/01/06 09:07:50;;;;;;;;;;;;;;;3.54;100.00;99385.63;4223601;33;19962;-74
2023/01/06 09:10:17;;;;;;;;;;;;;;;3.34;100.00;99384.66;4225314;33;20025;-74
2023/01/06 09:12:44;;;;;;;;;;;;;;;3.49;100.00;99390.69;4236520;33;20065;-74
2023/01/06 09:15:10;;;;;;;;;;;;;;;3.66;100.00;99383.22;4208196;34;19963;-74
2023/01/06 09:17:37;;;;;;;;;;;;;;;3.40;100.00;99391.87;4210237;34;19942;-74
2023/01/06 09:20:03;;;;;;;;;;;;;;;2.94;100.00;99401.13;4208308;34;19950;-73
2023/01/06 09:22:36;;;;;;;;;;;;;;;3.32;100.00;99389.34;4223088;33;20405;-75
2023/01/06 09:25:02;;;;;;;;;;;;;;;3.43;100.00;99396.78;4239277;33;19946;-74
2023/01/06 09:27:29;;;;;;;;;;;;;;;3.26;100.00;99389.09;4239063;33;19960;-76
2023/01/06 09:29:55;;;;;;;;;;;;;;;2.64;100.00;99389.78;4208209;34;20003;-75
2023/01/06 09:32:21;;;;;;;;;;;;;;;3.05;100.00;99391.81;4241428;33;19996;-74
2023/01/06 09:34:47;;;;;;;;;;;;;;;3.32;100.00;99387.53;4246402;33;19976;-75
2023/01/06 09:37:14;;;;;;;;;;;;;;;3.36;100.00;99385.28;4238463;33;19942;-75
2023/01/06 09:39:40;;;;;;;;;;;;;;;3.03;100.00;99384.03;4239244;33;20069;-75
2023/01/06 09:42:18;;;;;;;;;;;;;;;3.07;100.00;99381.78;4236778;33;19957;-75
2023/01/06 09:44:51;;;;;;;;;;;;;;;3.42;100.00;99381.84;4239470;33;20284;-75
2023/01/06 09:47:20;;;;;;;;;;;;;;;3.52;100.00;99377.00;4252560;33;19948;-75
2023/01/06 09:49:56;;;;;;;;;;;;;;;3.35;100.00;99381.81;4255113;33;20104;-74
2023/01/06 09:52:27;;;;;;;;;;;;;;;3.54;100.00;99380.31;4251924;33;20186;-75
2023/01/06 09:57:48;;;;;;;;;;;;;;;3.43;100.00;99383.47;4257061;33;19945;-75
2023/01/06 10:00:30;;;;;;;;;;;;;;;3.12;100.00;99386.53;4266766;33;19971;-75
2023/01/06 10:02:56;;;;;;;;;;;;;;;3.24;100.00;99379.69;4264617;33;19958;-76
2023/01/06 10:05:23;;;;;;;;;;;;;;;2.99;100.00;99381.94;4232709;33;19989;-74
2023/01/06 10:08:12;;;;;;;;;;;;;;;3.04;100.00;99379.53;4237644;33;20083;-75
2023/01/06 10:10:57;;;;;;;;;;;;;;;3.36;100.00;99377.31;4224170;33;20017;-74
2023/01/06 10:13:42;;;;;;;;;;;;;;;3.45;100.00;99368.16;4223576;34;19968;-74
2023/01/06 10:16:15;;;;;;;;;;;;;;;3.63;100.00;99363.13;4207619;34;19962;-74
2023/01/06 10:18:53;;;;;;;;;;;;;;;3.60;100.00;99363.53;4207740;34;19951;-74
2023/01/06 10:21:29;;;;;;;;;;;;;;;3.74;100.00;99358.28;4207946;34;20482;-74
2023/01/06 10:24:04;;;;;;;;;;;;;;;2.81;100.00;99356.62;4208656;34;19946;-75
2023/01/06 10:26:31;;;;;;;;;;;;;;;2.94;100.00;99363.06;4206923;34;19943;-75
2023/01/06 10:29:04;;;;;;;;;;;;;;;3.13;100.00;99367.72;4210259;34;20004;-76
2023/01/06 10:31:35;;;;;;;;;;;;;;;3.26;100.00;99356.34;4210084;34;20311;-75
2023/01/06 10:34:03;;;;;;;;;;;;;;;3.53;100.00;99338.72;4202756;34;20044;-74
2023/01/06 10:36:38;;;;;;;;;;;;;;;3.60;100.00;99318.25;4228556;33;19961;-74
2023/01/06 10:39:08;;;;;;;;;;;;;;;3.53;100.00;99314.75;4238224;33;19942;-74
2023/01/06 10:41:40;;;;;;;;;;;;;;;3.70;100.00;99314.41;4254384;33;19959;-74
2023/01/06 10:44:10;;;;;;;;;;;;;;;3.62;100.00;99302.91;4275662;33;19953;-73
2023/01/06 10:46:36;;;;;;;;;;;;;;;3.28;100.00;99296.56;4283797;33;20013;-74
2023/01/06 10:49:04;;;;;;;;;;;;;;;3.37;100.00;99293.78;4294946;33;19955;-73
2023/01/06 10:51:33;;;;;;;;;;;;;;;3.30;100.00;99284.91;4293495;33;20322;-73
2023/01/06 10:54:02;;;;;;;;;;;;;;;3.27;100.00;99286.97;4292631;33;20315;-74
2023/01/06 10:56:29;;;;;;;;;;;;;;;3.17;100.00;99289.12;4294402;33;19991;-74
2023/01/06 10:59:04;;;;;;;;;;;;;;;3.38;100.00;99276.78;4294462;33;19949;-74
2023/01/06 11:01:30;;;;;;;;;;;;;;;2.93;100.00;99276.31;4292261;33;19967;-73
2023/01/06 11:04:18;;;;;;;;;;;;;;;3.18;100.00;99269.50;4292463;33;19945;-74
2023/01/06 11:06:49;;;;;;;;;;;;;;;3.47;100.00;99278.25;4292674;33;19979;-74
2023/01/06 11:09:21;;;;;;;;;;;;;;;3.40;100.00;99283.56;4293227;33;19949;-74
2023/01/06 11:11:48;;;;;;;;;;;;;;;2.83;100.00;99282.78;4293756;33;20338;-73
2023/01/06 11:14:16;;;;;;;;;;;;;;;3.02;100.00;99275.13;4294324;33;19955;-74
2023/01/06 11:16:55;;;;;;;;;;;;;;;3.06;100.00;99266.59;4293847;33;19957;-74
2023/01/06 11:19:23;;;;;;;;;;;;;;;3.28;100.00;99264.63;4292265;33;19951;-73
2023/01/06 11:21:50;;;;;;;;;;;;;;;3.71;100.00;99273.44;4295814;33;20008;-74
2023/01/06 11:24:25;;;;;;;;;;;;;;;3.42;100.00;99286.03;4292586;33;20298;-73
2023/01/06 11:27:15;;;;;;;;;;;;;;;3.66;100.00;99275.91;4296127;33;19948;-73
2023/01/06 11:29:41;;;;;;;;;;;;;;;3.19;100.00;99273.81;4264872;33;19957;-73
2023/01/06 11:32:19;;;;;;;;;;;;;;;3.48;100.00;99266.59;4265682;33;20080;-73
2023/01/06 11:34:54;;;;;;;;;;;;;;;2.75;100.00;99259.00;4254383;33;20307;-73
2023/01/06 11:37:29;;;;;;;;;;;;;;;2.91;100.00;99250.69;4265169;33;19969;-73
2023/01/06 11:39:56;;;;;;;;;;;;;;;3.01;100.00;99257.53;4253083;33;20043;-72
2023/01/06 11:42:24;;;;;;;;;;;;;;;3.63;100.00;99256.59;4263972;33;20019;-72
2023/01/06 11:44:54;;;;;;;;;;;;;;;3.52;100.00;99254.53;4264796;33;19975;-75
2023/01/06 11:47:25;;;;;;;;;;;;;;;3.63;100.00;99256.59;4266625;33;19984;-73
2023/01/06 11:49:57;;;;;;;;;;;;;;;3.39;100.00;99257.13;4266488;33;19975;-73
2023/01/06 11:52:29;;;;;;;;;;;;;;;3.30;100.00;99252.97;4263520;33;19945;-73
2023/01/06 11:55:05;;;;;;;;;;;;;;;3.38;100.00;99247.50;4265677;33;19950;-73
2023/01/06 11:57:44;;;;;;;;;;;;;;;3.66;100.00;99239.44;4253461;33;20318;-72
2023/01/06 12:03:19;;;;;;;;;;;;;;;3.34;100.00;99236.44;4277953;33;20445;-72
2023/01/06 12:06:04;;;;;;;;;;;;;;;2.99;100.00;99227.66;4279483;33;19965;-73
2023/01/06 12:08:34;;;;;;;;;;;;;;;3.10;100.00;99224.44;4278701;33;20443;-72
2023/01/06 12:11:06;;;;;;;;;;;;;;;2.79;100.00;99215.00;4274088;33;20275;-72
2023/01/06 12:13:33;;;;;;;;;;;;;;;3.29;100.00;99201.59;4281277;33;20633;-73
2023/01/06 12:16:22;;;;;;;;;;;;;;;2.79;100.00;99206.22;4279915;33;20135;-72
2023/01/06 12:18:53;;;;;;;;;;;;;;;2.91;100.00;99199.34;4264475;33;20001;-73
2023/01/06 12:21:33;;;;;;;;;;;;;;;2.84;100.00;99188.69;4264073;33;19965;-73
2023/01/06 12:24:03;;;;;;;;;;;;;;;3.08;100.00;99199.88;4264196;33;19985;-75
2023/01/06 12:26:30;;;;;;;;;;;;;;;3.45;100.00;99198.59;4266271;33;20009;-73
2023/01/06 12:28:57;;;;;;;;;;;;;;;3.24;100.00;99204.84;4264672;33;19941;-74
2023/01/06 12:31:46;;;;;;;;;;;;;;;3.25;100.00;99195.84;4267907;33;19961;-74
2023/01/06 12:34:18;;;;;;;;;;;;;;;3.19;100.00;99186.00;4267274;33;19938;-74
2023/01/06 12:37:00;;;;;;;;;;;;;;;3.32;100.00;99176.41;4250100;33;19942;-75
2023/01/06 12:39:52;;;;;;;;;;;;;;;3.37;100.00;99166.00;4224837;34;19955;-74
2023/01/06 12:42:34;;;;;;;;;;;;;;;3.37;100.00;99174.00;4229983;33;19989;-74
2023/01/06 12:45:03;;;;;;;;;;;;;;;2.85;100.00;99158.41;4211251;34;19939;-77
2023/01/06 12:47:38;;;;;;;;;;;;;;;3.34;100.00;99158.44;4210159;34;20053;-76
2023/01/06 12:50:27;;;;;;;;;;;;;;;3.15;100.00;99139.50;4198814;34;20254;-77
2023/01/06 12:52:57;;;;;;;;;;;;;;;2.88;100.00;99125.28;4195112;34;20029;-74
2023/01/06 12:55:30;;;;;;;;;;;;;;;2.94;100.00;99123.69;4192775;34;19953;-73
2023/01/06 12:58:11;;;;;;;;;;;;;;;2.81;100.00;99132.37;4195037;34;20083;-73
2023/01/06 13:00:46;;;;;;;;;;;;;;;3.05;100.00;99133.75;4195830;34;20336;-74
2023/01/06 13:03:18;;;;;;;;;;;;;;;2.96;100.00;99121.62;4177820;34;19960;-76
2023/01/06 13:06:07;;;;;;;;;;;;;;;2.98;100.00;99109.75;4183087;34;20357;-75
2023/01/06 13:08:36;;;;;;;;;;;;;;;2.99;100.00;99090.12;4175420;34;20023;-74
2023/01/06 13:11:05;;;;;;;;;;;;;;;2.60;100.00;99080.97;4188111;34;19963;-75
2023/01/06 13:13:50;;;;;;;;;;;;;;;2.79;100.00;99084.72;4185194;34;20065;-75
2023/01/06 13:16:23;;;;;;;;;;;;;;;2.68;100.00;99071.97;4197801;34;19957;-73
2023/01/06 13:18:59;;;;;;;;;;;;;;;2.66;100.00;99068.72;4210925;34;20045;-75
2023/01/06 13:21:27;;;;;;;;;;;;;;;2.67;100.00;99078.34;4209591;34;19969;-76
2023/01/06 13:24:11;;;;;;;;;;;;;;;3.09;100.00;99100.41;4213129;34;19939;-76
2023/01/06 13:26:40;;;;;;;;;;;;;;;2.93;100.00;99095.44;4221393;34;19951;-75
2023/01/06 13:29:15;;;;;;;;;;;;;;;2.80;100.00;99097.00;4220515;34;20311;-75
2023/01/06 13:31:55;;;;;;;;;;;;;;;2.98;100.00;99082.34;4207012;34;20277;-78
2023/01/06 13:34:24;;;;;;;;;;;;;;;2.85;100.00;99083.94;4210714;34;19963;-77
2023/01/06 13:36:53;;;;;;;;;;;;;;;3.06;100.00;99084.81;4224325;33;19960;-77
2023/01/06 13:39:31;;;;;;;;;;;;;;;3.16;100.00;99085.28;4232452;33;20000;-76
2023/01/06 13:42:00;;;;;;;;;;;;;;;3.22;100.00;99089.81;4219760;33;19970;-76
2023/01/06 13:44:29;;;;;;;;;;;;;;;3.09;100.00;99105.72;4221020;33;19976;-77
2023/01/06 13:47:01;;;;;;;;;;;;;;;3.12;100.00;99115.97;4221839;33;19993;-76
2023/01/06 13:49:29;;;;;;;;;;;;;;;3.30;100.00;99120.72;4222318;33;19946;-75
2023/01/06 13:51:56;;;;;;;;;;;;;;;3.40;100.00;99139.81;4219517;33;19943;-76
2023/01/06 13:54:40;;;;;;;;;;;;;;;3.46;100.00;99132.84;4222868;33;20526;-79
2023/01/06 13:57:28;;;;;;;;;;;;;;;3.00;100.00;99130.84;4213620;33;20341;-77
2023/01/06 14:00:03;;;;;;;;;;;;;;;3.04;100.00;99129.44;4217353;33;19955;-77
2023/01/06 14:02:37;;;;;;;;;;;;;;;3.33;100.00;99122.19;4231341;33;20014;-75
2023/01/06 14:05:33;;;;;;;;;;;;;;;3.26;100.00;99112.31;4242855;33;19946;-75
2023/01/06 14:08:01;;;;;;;;;;;;;;;3.11;100.00;99111.66;4251527;33;19982;-75
2023/01/06 14:10:30;;;;;;;;;;;;;;;3.30;100.00;99101.28;4261108;33;19964;-75
2023/01/06 14:12:57;;;;;;;;;;;;;;;3.24;100.00;99098.41;4259875;33;19961;-76
2023/01/06 14:15:29;;;;;;;;;;;;;;;3.14;100.00;99108.59;4261353;33;19969;-75
2023/01/06 14:17:56;;;;;;;;;;;;;;;3.37;100.00;99091.50;4257038;33;19946;-75
2023/01/06 14:20:28;;;;;;;;;;;;;;;3.62;100.00;99089.91;4262759;33;19997;-75
2023/01/06 14:23:20;;;;;;;;;;;;;;;3.19;100.00;99084.06;4268884;33;19957;-75
2023/01/06 14:25:52;;;;;;;;;;;;;;;3.58;100.00;99087.84;4274547;33;19953;-75
2023/01/06 14:28:18;;;;;;;;;;;;;;;3.40;100.00;99080.44;4278489;33;20017;-76
2023/01/06 14:30:45;;;;;;;;;;;;;;;3.15;100.00;99099.59;4277791;33;19949;-76
2023/01/06 14:33:34;;;;;;;;;;;;;;;3.44;100.00;99097.62;4278493;33;19949;-76
2023/01/06 14:36:02;;;;;;;;;;;;;;;3.49;100.00;99089.84;4278275;33;20968;-74
2023/01/06 14:38:32;;;;;;;;;;;;;;;3.51;100.00;99087.00;4280932;33;19955;-75
2023/01/06 14:41:03;;;;;;;;;;;;;;;3.52;100.00;99075.34;4280978;33;19961;-75
2023/01/06 14:43:38;;;;;;;;;;;;;;;3.20;100.00;99072.41;4279684;33;19980;-73
2023/01/06 14:46:13;;;;;;;;;;;;;;;3.19;100.00;99063.59;4279273;33;20214;-75
2023/01/06 14:48:43;;;;;;;;;;;;;;;3.15;100.00;99054.38;4280770;33;19953;-75
2023/01/06 14:51:13;;;;;;;;;;;;;;;3.37;100.00;99048.91;4261145;33;20438;-73
2023/01/06 14:53:42;;;;;;;;;;;;;;;3.17;100.00;99044.34;4253940;33;20003;-76
2023/01/06 14:56:16;;;;;;;;;;;;;;;3.09;100.00;99052.50;4254213;33;19949;-75
2023/01/06 14:58:43;;;;;;;;;;;;;;;3.23;100.00;99043.53;4241312;33;19942;-76
2023/01/06 15:01:27;;;;;;;;;;;;;;;3.37;100.00;99043.56;4246044;33;20073;-76
2023/01/06 15:03:58;;;;;;;;;;;;;;;3.22;100.00;99036.59;4244324;33;19958;-75
2023/01/06 15:06:25;;;;;;;;;;;;;;;3.15;100.00;99035.75;4249600;33;20388;-74
2023/01/06 15:08:51;;;;;;;;;;;;;;;3.16;100.00;99036.56;4245252;33;19981;-74